sensor_id;sensor_type;location;lat;lon;timestamp;temperature;humidity
19085;DHT22;9675;51.538;6.728;2023-01-16T00:01:54;7.30;99.90
19085;DHT22;9675;51.538;6.728;2023-01-16T00:04:23;7.30;99.90
19085;DHT22;9675;51.538;6.728;2023-01-16T00:06:50;7.30;99.90
19085;DHT22;9675;51.538;6.728;2023-01-16T00:09:20;7.20;99.90
19085;DHT22;9675;51.538;6.728;2023-01-16T00:11:47;7.20;99.90
19085;DHT22;9675;51.538;6.728;2023-01-16T00:14:14;7.20;99.90
19085;DHT22;9675;51.538;6.728;2023-01-16T00:16:41;7.20;99.90
19085;DHT22;9675;51.538;6.728;2023-01-16T00:19:08;7.20;99.90
19085;DHT22;9675;51.538;6.728;2023-01-16T00:21:35;7.20;99.90
19085;DHT22;9675;51.538;6.728;2023-01-16T00:24:03;7.20;99.90
19085;DHT22;9675;51.538;6.728;2023-01-16T00:26:33;7.10;99.90
19085;DHT22;9675;51.538;6.728;2023-01-16T00:29:00;7.10;99.90
19085;DHT22;9675;51.538;6.728;2023-01-16T00:31:27;7.10;99.90
19085;DHT22;9675;51.538;6.728;2023-01-16T00:33:54;7.10;99.90
19085;DHT22;9675;51.538;6.728;2023-01-16T00:36:21;7.10;99.90
19085;DHT22;9675;51.538;6.728;2023-01-16T00:38:48;7.10;99.90
19085;DHT22;9675;51.538;6.728;2023-01-16T00:41:16;7.10;99.90
19085;DHT22;9675;51.538;6.728;2023-01-16T00:43:44;7.00;99.90
19085;DHT22;9675;51.538;6.728;2023-01-16T00:46:11;7.00;99.90
19085;DHT22;9675;51.538;6.728;2023-01-16T00:48:38;7.00;99.90
19085;DHT22;9675;51.538;6.728;2023-01-16T00:51:05;7.00;99.90
19085;DHT22;9675;51.538;6.728;2023-01-16T00:53:32;7.00;99.90
19085;DHT22;9675;51.538;6.728;2023-01-16T00:55:59;7.00;99.90
19085;DHT22;9675;51.538;6.728;2023-01-16T00:58:26;7.00;99.90
19085;DHT22;9675;51.538;6.728;2023-01-16T01:00:54;7.00;99.90
19085;DHT22;9675;51.538;6.728;2023-01-16T01:03:21;7.00;99.90
19085;DHT22;9675;51.538;6.728;2023-01-16T01:05:48;7.00;99.90
19085;DHT22;9675;51.538;6.728;2023-01-16T01:08:16;7.00;99.90
19085;DHT22;9675;51.538;6.728;2023-01-16T01:10:43;7.00;99.90
19085;DHT22;9675;51.538;6.728;2023-01-16T01:13:10;7.00;99.90
19085;DHT22;9675;51.538;6.728;2023-01-16T01:15:37;6.90;99.90
19085;DHT22;9675;51.538;6.728;2023-01-16T01:18:06;6.90;99.90
19085;DHT22;9675;51.538;6.728;2023-01-16T01:20:33;6.90;99.90
19085;DHT22;9675;51.538;6.728;2023-01-16T01:23:00;6.90;99.90
19085;DHT22;9675;51.538;6.728;2023-01-16T01:25:27;6.80;99.90
19085;DHT22;9675;51.538;6.728;2023-01-16T01:27:54;6.80;99.90
19085;DHT22;9675;51.538;6.728;2023-01-16T01:30:21;6.80;99.90
19085;DHT22;9675;51.538;6.728;2023-01-16T01:32:48;6.80;99.90
19085;DHT22;9675;51.538;6.728;2023-01-16T01:35:16;6.80;99.90
19085;DHT22;9675;51.538;6.728;2023-01-16T01:37:45;6.70;99.90
19085;DHT22;9675;51.538;6.728;2023-01-16T01:40:12;6.70;99.90
19085;DHT22;9675;51.538;6.728;2023-01-16T01:42:40;6.70;99.90
19085;DHT22;9675;51.538;6.728;2023-01-16T01:45:18;6.70;99.90
19085;DHT22;9675;51.538;6.728;2023-01-16T01:47:51;6.70;99.90
19085;DHT22;9675;51.538;6.728;2023-01-16T01:50:34;6.70;99.90
19085;DHT22;9675;51.538;6.728;2023-01-16T01:53:08;6.60;99.90
19085;DHT22;9675;51.538;6.728;2023-01-16T01:55:41;6.60;99.90
19085;DHT22;9675;51.538;6.728;2023-01-16T01:58:14;6.60;99.90
19085;DHT22;9675;51.538;6.728;2023-01-16T02:00:49;6.60;99.90
19085;DHT22;9675;51.538;6.728;2023-01-16T02:03:23;6.60;99.90
19085;DHT22;9675;51.538;6.728;2023-01-16T02:05:58;6.60;99.90
19085;DHT22;9675;51.538;6.728;2023-01-16T02:08:30;6.60;99.90
19085;DHT22;9675;51.538;6.728;2023-01-16T02:11:02;6.60;99.90
19085;DHT22;9675;51.538;6.728;2023-01-16T02:13:34;6.50;99.90
19085;DHT22;9675;51.538;6.728;2023-01-16T02:16:04;6.50;99.90
19085;DHT22;9675;51.538;6.728;2023-01-16T02:18:50;6.50;99.90
19085;DHT22;9675;51.538;6.728;2023-01-16T02:31:38;6.40;99.90
19085;DHT22;9675;51.538;6.728;2023-01-16T02:34:22;6.40;99.90
19085;DHT22;9675;51.538;6.728;2023-01-16T02:37:11;6.40;99.90
19085;DHT22;9675;51.538;6.728;2023-01-16T02:39:51;6.40;99.90
19085;DHT22;9675;51.538;6.728;2023-01-16T02:42:33;6.40;99.90
19085;DHT22;9675;51.538;6.728;2023-01-16T02:45:11;6.40;99.90
19085;DHT22;9675;51.538;6.728;2023-01-16T02:47:53;6.40;99.90
19085;DHT22;9675;51.538;6.728;2023-01-16T02:50:28;6.40;99.90
19085;DHT22;9675;51.538;6.728;2023-01-16T02:53:09;6.40;99.90
19085;DHT22;9675;51.538;6.728;2023-01-16T02:55:46;6.40;99.90
19085;DHT22;9675;51.538;6.728;2023-01-16T02:58:18;6.30;99.90
19085;DHT22;9675;51.538;6.728;2023-01-16T03:00:51;6.30;99.90
19085;DHT22;9675;51.538;6.728;2023-01-16T03:03:49;6.30;99.90
19085;DHT22;9675;51.538;6.728;2023-01-16T03:06:41;6.30;99.90
19085;DHT22;9675;51.538;6.728;2023-01-16T03:09:29;6.30;99.90
19085;DHT22;9675;51.538;6.728;2023-01-16T03:12:16;6.30;99.90
19085;DHT22;9675;51.538;6.728;2023-01-16T03:14:55;6.30;99.90
19085;DHT22;9675;51.538;6.728;2023-01-16T03:17:42;6.30;99.90
19085;DHT22;9675;51.538;6.728;2023-01-16T03:20:30;6.30;99.90
19085;DHT22;9675;51.538;6.728;2023-01-16T03:23:09;6.30;99.90
19085;DHT22;9675;51.538;6.728;2023-01-16T03:25:47;6.30;99.90
19085;DHT22;9675;51.538;6.728;2023-01-16T03:28:25;6.20;99.90
19085;DHT22;9675;51.538;6.728;2023-01-16T03:31:03;6.30;99.90
19085;DHT22;9675;51.538;6.728;2023-01-16T03:33:39;6.30;99.90
19085;DHT22;9675;51.538;6.728;2023-01-16T03:36:18;6.30;99.90
19085;DHT22;9675;51.538;6.728;2023-01-16T03:38:51;6.30;99.90
19085;DHT22;9675;51.538;6.728;2023-01-16T03:41:21;6.30;99.90
19085;DHT22;9675;51.538;6.728;2023-01-16T03:43:56;6.40;99.90
19085;DHT22;9675;51.538;6.728;2023-01-16T03:46:28;6.30;99.90
19085;DHT22;9675;51.538;6.728;2023-01-16T03:49:02;6.30;99.90
19085;DHT22;9675;51.538;6.728;2023-01-16T03:51:39;6.30;99.90
19085;DHT22;9675;51.538;6.728;2023-01-16T03:54:19;6.30;99.90
19085;DHT22;9675;51.538;6.728;2023-01-16T03:56:58;6.30;99.90
19085;DHT22;9675;51.538;6.728;2023-01-16T03:59:30;6.30;99.90
19085;DHT22;9675;51.538;6.728;2023-01-16T04:02:00;6.30;99.90
19085;DHT22;9675;51.538;6.728;2023-01-16T04:04:34;6.20;99.90
19085;DHT22;9675;51.538;6.728;2023-01-16T04:07:12;6.20;99.90
19085;DHT22;9675;51.538;6.728;2023-01-16T04:09:49;6.30;99.90
19085;DHT22;9675;51.538;6.728;2023-01-16T04:12:22;6.20;99.90
19085;DHT22;9675;51.538;6.728;2023-01-16T04:14:56;6.20;99.90
19085;DHT22;9675;51.538;6.728;2023-01-16T04:17:26;6.20;99.90
19085;DHT22;9675;51.538;6.728;2023-01-16T04:19:54;6.20;99.90
19085;DHT22;9675;51.538;6.728;2023-01-16T04:22:25;6.20;99.90
19085;DHT22;9675;51.538;6.728;2023-01-16T04:24:56;6.20;99.90
19085;DHT22;9675;51.538;6.728;2023-01-16T04:27:25;6.20;99.90
19085;DHT22;9675;51.538;6.728;2023-01-16T04:29:53;6.20;99.90
19085;DHT22;9675;51.538;6.728;2023-01-16T04:32:21;6.20;99.90
19085;DHT22;9675;51.538;6.728;2023-01-16T04:34:48;6.20;99.90
19085;DHT22;9675;51.538;6.728;2023-01-16T04:37:16;6.20;99.90
19085;DHT22;9675;51.538;6.728;2023-01-16T04:39:45;6.20;99.90
19085;DHT22;9675;51.538;6.728;2023-01-16T04:42:13;6.20;99.90
19085;DHT22;9675;51.538;6.728;2023-01-16T04:44:40;6.20;99.90
19085;DHT22;9675;51.538;6.728;2023-01-16T04:47:08;6.20;99.90
19085;DHT22;9675;51.538;6.728;2023-01-16T04:49:35;6.10;99.90
19085;DHT22;9675;51.538;6.728;2023-01-16T04:52:02;6.10;99.90
19085;DHT22;9675;51.538;6.728;2023-01-16T04:54:29;6.10;99.90
19085;DHT22;9675;51.538;6.728;2023-01-16T04:56:58;6.10;99.90
19085;DHT22;9675;51.538;6.728;2023-01-16T04:59:26;6.10;99.90
19085;DHT22;9675;51.538;6.728;2023-01-16T05:01:53;6.10;99.90
19085;DHT22;9675;51.538;6.728;2023-01-16T05:04:20;6.10;99.90
19085;DHT22;9675;51.538;6.728;2023-01-16T05:06:47;6.10;99.90
19085;DHT22;9675;51.538;6.728;2023-01-16T05:09:14;6.10;99.90
19085;DHT22;9675;51.538;6.728;2023-01-16T05:11:41;6.10;99.90
19085;DHT22;9675;51.538;6.728;2023-01-16T05:14:10;6.10;99.90
19085;DHT22;9675;51.538;6.728;2023-01-16T05:16:38;6.10;99.90
19085;DHT22;9675;51.538;6.728;2023-01-16T05:19:07;6.00;99.90
19085;DHT22;9675;51.538;6.728;2023-01-16T05:21:35;6.00;99.90
19085;DHT22;9675;51.538;6.728;2023-01-16T05:24:03;6.00;99.90
19085;DHT22;9675;51.538;6.728;2023-01-16T05:26:31;6.00;99.90
19085;DHT22;9675;51.538;6.728;2023-01-16T05:28:58;6.00;99.90
19085;DHT22;9675;51.538;6.728;2023-01-16T05:31:27;6.00;99.90
19085;DHT22;9675;51.538;6.728;2023-01-16T05:33:54;6.00;99.90
19085;DHT22;9675;51.538;6.728;2023-01-16T05:36:21;6.00;99.90
19085;DHT22;9675;51.538;6.728;2023-01-16T05:38:48;6.10;99.90
19085;DHT22;9675;51.538;6.728;2023-01-16T05:41:16;6.00;99.90
19085;DHT22;9675;51.538;6.728;2023-01-16T05:43:43;6.10;99.90
19085;DHT22;9675;51.538;6.728;2023-01-16T05:46:10;6.00;99.90
19085;DHT22;9675;51.538;6.728;2023-01-16T05:48:39;6.00;99.90
19085;DHT22;9675;51.538;6.728;2023-01-16T05:51:06;6.00;99.90
19085;DHT22;9675;51.538;6.728;2023-01-16T05:53:34;6.00;99.90
19085;DHT22;9675;51.538;6.728;2023-01-16T05:56:07;6.00;99.90
19085;DHT22;9675;51.538;6.728;2023-01-16T05:58:36;6.00;99.90
19085;DHT22;9675;51.538;6.728;2023-01-16T06:01:04;6.00;99.90
19085;DHT22;9675;51.538;6.728;2023-01-16T06:03:31;6.00;99.90
19085;DHT22;9675;51.538;6.728;2023-01-16T06:06:00;6.00;99.90
19085;DHT22;9675;51.538;6.728;2023-01-16T06:08:27;6.00;99.90
19085;DHT22;9675;51.538;6.728;2023-01-16T06:10:56;5.90;99.90
19085;DHT22;9675;51.538;6.728;2023-01-16T06:13:23;6.00;99.90
19085;DHT22;9675;51.538;6.728;2023-01-16T06:15:50;6.00;99.90
19085;DHT22;9675;51.538;6.728;2023-01-16T06:18:17;6.00;99.90
19085;DHT22;9675;51.538;6.728;2023-01-16T06:20:44;6.00;99.90
19085;DHT22;9675;51.538;6.728;2023-01-16T06:23:12;6.00;99.90
19085;DHT22;9675;51.538;6.728;2023-01-16T06:25:50;5.90;99.90
19085;DHT22;9675;51.538;6.728;2023-01-16T06:28:18;6.00;99.90
19085;DHT22;9675;51.538;6.728;2023-01-16T06:30:50;6.00;99.90
19085;DHT22;9675;51.538;6.728;2023-01-16T06:33:18;5.90;99.90
19085;DHT22;9675;51.538;6.728;2023-01-16T06:35:45;5.90;99.90
19085;DHT22;9675;51.538;6.728;2023-01-16T06:38:15;5.90;99.90
19085;DHT22;9675;51.538;6.728;2023-01-16T06:40:43;5.90;99.90
19085;DHT22;9675;51.538;6.728;2023-01-16T06:43:11;5.90;99.90
19085;DHT22;9675;51.538;6.728;2023-01-16T06:45:38;5.90;99.90
19085;DHT22;9675;51.538;6.728;2023-01-16T06:48:05;5.90;99.90
19085;DHT22;9675;51.538;6.728;2023-01-16T06:50:32;5.90;99.90
19085;DHT22;9675;51.538;6.728;2023-01-16T06:52:59;6.00;99.90
19085;DHT22;9675;51.538;6.728;2023-01-16T06:55:28;5.90;99.90
19085;DHT22;9675;51.538;6.728;2023-01-16T06:57:55;6.00;99.90
19085;DHT22;9675;51.538;6.728;2023-01-16T07:00:22;5.90;99.90
19085;DHT22;9675;51.538;6.728;2023-01-16T07:02:51;6.00;99.90
19085;DHT22;9675;51.538;6.728;2023-01-16T07:05:20;6.00;99.90
19085;DHT22;9675;51.538;6.728;2023-01-16T07:07:48;6.00;99.90
19085;DHT22;9675;51.538;6.728;2023-01-16T07:10:16;6.00;99.90
19085;DHT22;9675;51.538;6.728;2023-01-16T07:12:47;6.00;99.90
19085;DHT22;9675;51.538;6.728;2023-01-16T07:15:14;6.00;99.90
19085;DHT22;9675;51.538;6.728;2023-01-16T07:17:59;6.00;99.90
19085;DHT22;9675;51.538;6.728;2023-01-16T07:20:54;6.00;99.90
19085;DHT22;9675;51.538;6.728;2023-01-16T07:23:43;6.00;99.90
19085;DHT22;9675;51.538;6.728;2023-01-16T07:26:14;6.00;99.90
19085;DHT22;9675;51.538;6.728;2023-01-16T07:28:46;6.00;99.90
19085;DHT22;9675;51.538;6.728;2023-01-16T07:31:16;6.00;99.90
19085;DHT22;9675;51.538;6.728;2023-01-16T07:33:43;6.00;99.90
19085;DHT22;9675;51.538;6.728;2023-01-16T07:36:10;6.00;99.90
19085;DHT22;9675;51.538;6.728;2023-01-16T07:38:37;6.00;99.90
19085;DHT22;9675;51.538;6.728;2023-01-16T07:41:04;6.00;99.90
19085;DHT22;9675;51.538;6.728;2023-01-16T07:43:31;6.00;99.90
19085;DHT22;9675;51.538;6.728;2023-01-16T07:46:00;6.00;99.90
19085;DHT22;9675;51.538;6.728;2023-01-16T07:48:27;6.00;99.90
19085;DHT22;9675;51.538;6.728;2023-01-16T07:50:56;6.00;99.90
19085;DHT22;9675;51.538;6.728;2023-01-16T07:53:27;6.00;99.90
19085;DHT22;9675;51.538;6.728;2023-01-16T07:55:58;6.00;99.90
19085;DHT22;9675;51.538;6.728;2023-01-16T07:58:26;6.00;99.90
19085;DHT22;9675;51.538;6.728;2023-01-16T08:00:55;6.00;99.90
19085;DHT22;9675;51.538;6.728;2023-01-16T08:03:25;6.00;99.90
19085;DHT22;9675;51.538;6.728;2023-01-16T08:05:54;6.00;99.90
19085;DHT22;9675;51.538;6.728;2023-01-16T08:08:22;6.00;99.90
19085;DHT22;9675;51.538;6.728;2023-01-16T08:10:53;6.00;99.90
19085;DHT22;9675;51.538;6.728;2023-01-16T08:13:21;6.00;99.90
19085;DHT22;9675;51.538;6.728;2023-01-16T08:15:48;6.00;99.90
19085;DHT22;9675;51.538;6.728;2023-01-16T08:18:16;6.00;99.90
19085;DHT22;9675;51.538;6.728;2023-01-16T08:20:44;6.00;99.90
19085;DHT22;9675;51.538;6.728;2023-01-16T08:23:12;6.00;99.90
19085;DHT22;9675;51.538;6.728;2023-01-16T08:25:39;5.90;99.90
19085;DHT22;9675;51.538;6.728;2023-01-16T08:28:06;5.90;99.90
19085;DHT22;9675;51.538;6.728;2023-01-16T08:30:33;5.90;99.90
19085;DHT22;9675;51.538;6.728;2023-01-16T08:33:01;5.90;99.90
19085;DHT22;9675;51.538;6.728;2023-01-16T08:35:28;5.90;99.90
19085;DHT22;9675;51.538;6.728;2023-01-16T08:37:56;5.90;99.90
19085;DHT22;9675;51.538;6.728;2023-01-16T08:40:23;5.90;99.90
19085;DHT22;9675;51.538;6.728;2023-01-16T08:42:50;5.90;99.90
19085;DHT22;9675;51.538;6.728;2023-01-16T08:45:35;6.00;99.90
19085;DHT22;9675;51.538;6.728;2023-01-16T08:48:25;5.90;99.90
19085;DHT22;9675;51.538;6.728;2023-01-16T08:51:15;5.90;99.90
19085;DHT22;9675;51.538;6.728;2023-01-16T08:53:53;5.90;99.90
19085;DHT22;9675;51.538;6.728;2023-01-16T08:56:22;5.90;99.90
19085;DHT22;9675;51.538;6.728;2023-01-16T08:58:50;5.90;99.90
19085;DHT22;9675;51.538;6.728;2023-01-16T09:01:17;5.90;99.90
19085;DHT22;9675;51.538;6.728;2023-01-16T09:03:44;5.90;99.90
19085;DHT22;9675;51.538;6.728;2023-01-16T09:06:12;5.90;99.90
19085;DHT22;9675;51.538;6.728;2023-01-16T09:08:39;6.00;99.90
19085;DHT22;9675;51.538;6.728;2023-01-16T09:11:07;6.00;99.90
19085;DHT22;9675;51.538;6.728;2023-01-16T09:13:52;5.90;99.90
19085;DHT22;9675;51.538;6.728;2023-01-16T09:16:23;6.00;99.90
19085;DHT22;9675;51.538;6.728;2023-01-16T09:18:51;6.00;99.90
19085;DHT22;9675;51.538;6.728;2023-01-16T09:21:19;6.00;99.90
19085;DHT22;9675;51.538;6.728;2023-01-16T09:23:49;6.00;99.90
19085;DHT22;9675;51.538;6.728;2023-01-16T09:26:18;6.00;99.90
19085;DHT22;9675;51.538;6.728;2023-01-16T09:28:45;6.00;99.90
19085;DHT22;9675;51.538;6.728;2023-01-16T09:31:12;6.00;99.90
19085;DHT22;9675;51.538;6.728;2023-01-16T09:33:39;6.00;99.90
19085;DHT22;9675;51.538;6.728;2023-01-16T09:36:07;6.00;99.90
19085;DHT22;9675;51.538;6.728;2023-01-16T09:38:35;6.00;99.90
19085;DHT22;9675;51.538;6.728;2023-01-16T09:41:02;6.00;99.90
19085;DHT22;9675;51.538;6.728;2023-01-16T09:43:36;6.00;99.90
19085;DHT22;9675;51.538;6.728;2023-01-16T09:46:11;6.00;99.90
19085;DHT22;9675;51.538;6.728;2023-01-16T09:48:47;6.00;99.90
19085;DHT22;9675;51.538;6.728;2023-01-16T09:51:20;6.00;99.90
19085;DHT22;9675;51.538;6.728;2023-01-16T09:53:54;6.00;99.90
19085;DHT22;9675;51.538;6.728;2023-01-16T09:56:45;6.00;99.90
19085;DHT22;9675;51.538;6.728;2023-01-16T09:59:37;6.00;99.90
19085;DHT22;9675;51.538;6.728;2023-01-16T10:02:17;6.00;99.90
19085;DHT22;9675;51.538;6.728;2023-01-16T10:04:49;6.10;99.90
19085;DHT22;9675;51.538;6.728;2023-01-16T10:07:48;6.00;99.90
19085;DHT22;9675;51.538;6.728;2023-01-16T10:10:36;6.00;99.90
19085;DHT22;9675;51.538;6.728;2023-01-16T10:16:21;6.00;99.90
19085;DHT22;9675;51.538;6.728;2023-01-16T10:19:07;6.00;99.90
19085;DHT22;9675;51.538;6.728;2023-01-16T10:21:55;6.00;99.90
19085;DHT22;9675;51.538;6.728;2023-01-16T10:24:43;6.00;99.90
19085;DHT22;9675;51.538;6.728;2023-01-16T10:27:19;6.00;99.90
19085;DHT22;9675;51.538;6.728;2023-01-16T10:29:55;6.10;99.90
19085;DHT22;9675;51.538;6.728;2023-01-16T10:32:32;6.10;99.90
19085;DHT22;9675;51.538;6.728;2023-01-16T10:35:06;6.10;99.90
19085;DHT22;9675;51.538;6.728;2023-01-16T10:37:43;6.10;99.90
19085;DHT22;9675;51.538;6.728;2023-01-16T10:40:15;6.10;99.90
19085;DHT22;9675;51.538;6.728;2023-01-16T10:42:48;6.10;99.90
19085;DHT22;9675;51.538;6.728;2023-01-16T10:45:39;6.10;99.90
19085;DHT22;9675;51.538;6.728;2023-01-16T10:48:26;6.10;99.90
19085;DHT22;9675;51.538;6.728;2023-01-16T10:51:14;6.10;99.90
19085;DHT22;9675;51.538;6.728;2023-01-16T10:53:42;6.00;99.90
19085;DHT22;9675;51.538;6.728;2023-01-16T10:56:10;6.00;99.90
19085;DHT22;9675;51.538;6.728;2023-01-16T10:58:38;6.10;99.90
19085;DHT22;9675;51.538;6.728;2023-01-16T11:01:12;6.10;99.90
19085;DHT22;9675;51.538;6.728;2023-01-16T11:03:43;6.10;99.90
19085;DHT22;9675;51.538;6.728;2023-01-16T11:06:14;6.10;99.90
19085;DHT22;9675;51.538;6.728;2023-01-16T11:08:47;6.10;99.90
19085;DHT22;9675;51.538;6.728;2023-01-16T11:11:16;6.10;99.90
19085;DHT22;9675;51.538;6.728;2023-01-16T11:14:04;6.10;99.90
19085;DHT22;9675;51.538;6.728;2023-01-16T11:16:56;6.10;99.90
19085;DHT22;9675;51.538;6.728;2023-01-16T11:19:43;6.10;99.90
19085;DHT22;9675;51.538;6.728;2023-01-16T11:22:25;6.10;99.90
19085;DHT22;9675;51.538;6.728;2023-01-16T11:24:56;6.20;99.90
19085;DHT22;9675;51.538;6.728;2023-01-16T11:27:28;6.20;99.90
19085;DHT22;9675;51.538;6.728;2023-01-16T11:29:58;6.20;99.90
19085;DHT22;9675;51.538;6.728;2023-01-16T11:32:35;6.20;99.90
19085;DHT22;9675;51.538;6.728;2023-01-16T11:35:13;6.30;99.90
19085;DHT22;9675;51.538;6.728;2023-01-16T11:37:45;6.30;99.90
19085;DHT22;9675;51.538;6.728;2023-01-16T11:40:18;6.30;99.90
19085;DHT22;9675;51.538;6.728;2023-01-16T11:42:53;6.30;99.90
19085;DHT22;9675;51.538;6.728;2023-01-16T11:45:43;6.30;99.90
19085;DHT22;9675;51.538;6.728;2023-01-16T11:48:36;6.30;99.90
19085;DHT22;9675;51.538;6.728;2023-01-16T11:51:06;6.30;99.90
19085;DHT22;9675;51.538;6.728;2023-01-16T11:53:40;6.30;99.90
19085;DHT22;9675;51.538;6.728;2023-01-16T11:56:40;6.40;99.90
19085;DHT22;9675;51.538;6.728;2023-01-16T11:59:38;6.40;99.90
19085;DHT22;9675;51.538;6.728;2023-01-16T12:02:40;6.40;99.90
19085;DHT22;9675;51.538;6.728;2023-01-16T12:05:28;6.40;99.90
19085;DHT22;9675;51.538;6.728;2023-01-16T12:08:48;6.40;99.90
19085;DHT22;9675;51.538;6.728;2023-01-16T12:11:36;6.40;99.90
19085;DHT22;9675;51.538;6.728;2023-01-16T12:14:17;6.50;99.90
19085;DHT22;9675;51.538;6.728;2023-01-16T12:17:06;6.50;99.90
19085;DHT22;9675;51.538;6.728;2023-01-16T12:19:59;6.60;99.90
19085;DHT22;9675;51.538;6.728;2023-01-16T12:22:45;6.60;99.90
19085;DHT22;9675;51.538;6.728;2023-01-16T12:25:35;6.60;99.90
19085;DHT22;9675;51.538;6.728;2023-01-16T12:28:17;6.60;99.90
19085;DHT22;9675;51.538;6.728;2023-01-16T12:31:04;6.70;99.90
19085;DHT22;9675;51.538;6.728;2023-01-16T12:33:54;6.70;99.90
19085;DHT22;9675;51.538;6.728;2023-01-16T12:36:38;6.70;99.90
19085;DHT22;9675;51.538;6.728;2023-01-16T12:39:18;6.70;99.90
19085;DHT22;9675;51.538;6.728;2023-01-16T12:41:59;6.70;99.90
19085;DHT22;9675;51.538;6.728;2023-01-16T12:45:02;6.70;99.90
19085;DHT22;9675;51.538;6.728;2023-01-16T12:47:47;6.70;99.90
19085;DHT22;9675;51.538;6.728;2023-01-16T12:50:39;6.70;99.90
19085;DHT22;9675;51.538;6.728;2023-01-16T12:53:27;6.70;99.90
19085;DHT22;9675;51.538;6.728;2023-01-16T12:56:29;6.70;99.90
19085;DHT22;9675;51.538;6.728;2023-01-16T12:59:12;6.70;99.90
19085;DHT22;9675;51.538;6.728;2023-01-16T13:01:46;6.70;99.90
19085;DHT22;9675;51.538;6.728;2023-01-16T13:04:20;6.70;99.90
19085;DHT22;9675;51.538;6.728;2023-01-16T13:06:53;6.70;99.90
19085;DHT22;9675;51.538;6.728;2023-01-16T13:09:28;6.70;99.90
19085;DHT22;9675;51.538;6.728;2023-01-16T13:12:09;6.70;99.90
19085;DHT22;9675;51.538;6.728;2023-01-16T13:15:17;6.70;99.90
19085;DHT22;9675;51.538;6.728;2023-01-16T13:17:50;6.70;99.90
19085;DHT22;9675;51.538;6.728;2023-01-16T13:20:23;6.70;99.90
19085;DHT22;9675;51.538;6.728;2023-01-16T13:22:57;6.70;99.90
19085;DHT22;9675;51.538;6.728;2023-01-16T13:25:31;6.70;99.90
19085;DHT22;9675;51.538;6.728;2023-01-16T13:28:06;6.70;99.90
19085;DHT22;9675;51.538;6.728;2023-01-16T13:30:45;6.70;99.90
19085;DHT22;9675;51.538;6.728;2023-01-16T13:33:17;6.70;99.90
19085;DHT22;9675;51.538;6.728;2023-01-16T13:35:54;6.60;99.90
19085;DHT22;9675;51.538;6.728;2023-01-16T13:38:46;6.60;99.90
19085;DHT22;9675;51.538;6.728;2023-01-16T13:41:29;6.60;99.90
19085;DHT22;9675;51.538;6.728;2023-01-16T13:44:06;6.60;99.90
19085;DHT22;9675;51.538;6.728;2023-01-16T13:47:03;6.60;99.90
19085;DHT22;9675;51.538;6.728;2023-01-16T13:49:34;6.60;99.90
19085;DHT22;9675;51.538;6.728;2023-01-16T13:52:02;6.60;99.90
19085;DHT22;9675;51.538;6.728;2023-01-16T13:54:35;6.60;99.90
19085;DHT22;9675;51.538;6.728;2023-01-16T13:57:11;6.60;99.90
19085;DHT22;9675;51.538;6.728;2023-01-16T13:59:46;6.60;99.90
19085;DHT22;9675;51.538;6.728;2023-01-16T14:02:26;6.60;99.90
19085;DHT22;9675;51.538;6.728;2023-01-16T14:05:28;6.60;99.90
19085;DHT22;9675;51.538;6.728;2023-01-16T14:08:19;6.60;99.90
19085;DHT22;9675;51.538;6.728;2023-01-16T14:11:28;6.60;99.90
19085;DHT22;9675;51.538;6.728;2023-01-16T14:14:20;6.60;99.90
19085;DHT22;9675;51.538;6.728;2023-01-16T14:17:13;6.60;99.90
19085;DHT22;9675;51.538;6.728;2023-01-16T14:19:55;6.60;99.90
19085;DHT22;9675;51.538;6.728;2023-01-16T14:22:32;6.60;99.90
19085;DHT22;9675;51.538;6.728;2023-01-16T14:25:22;6.60;99.90
19085;DHT22;9675;51.538;6.728;2023-01-16T14:27:53;6.60;99.90
19085;DHT22;9675;51.538;6.728;2023-01-16T14:30:24;6.60;99.90
19085;DHT22;9675;51.538;6.728;2023-01-16T14:32:57;6.60;99.90
19085;DHT22;9675;51.538;6.728;2023-01-16T14:35:30;6.50;99.90
19085;DHT22;9675;51.538;6.728;2023-01-16T14:38:11;6.60;99.90
19085;DHT22;9675;51.538;6.728;2023-01-16T14:40:48;6.60;99.90
19085;DHT22;9675;51.538;6.728;2023-01-16T14:43:36;6.60;99.90
19085;DHT22;9675;51.538;6.728;2023-01-16T14:46:53;6.60;99.90
19085;DHT22;9675;51.538;6.728;2023-01-16T14:50:04;6.50;99.90
19085;DHT22;9675;51.538;6.728;2023-01-16T14:56:14;6.50;99.90
19085;DHT22;9675;51.538;6.728;2023-01-16T14:58:51;6.50;99.90
19085;DHT22;9675;51.538;6.728;2023-01-16T15:01:29;6.50;99.90
19085;DHT22;9675;51.538;6.728;2023-01-16T15:04:19;6.50;99.90
19085;DHT22;9675;51.538;6.728;2023-01-16T15:06:53;6.50;99.90
19085;DHT22;9675;51.538;6.728;2023-01-16T15:09:28;6.50;99.90
19085;DHT22;9675;51.538;6.728;2023-01-16T15:12:02;6.50;99.90
19085;DHT22;9675;51.538;6.728;2023-01-16T15:14:36;6.50;99.90
19085;DHT22;9675;51.538;6.728;2023-01-16T15:17:16;6.40;99.90
19085;DHT22;9675;51.538;6.728;2023-01-16T15:20:23;6.40;99.90
19085;DHT22;9675;51.538;6.728;2023-01-16T15:23:21;6.40;99.90
19085;DHT22;9675;51.538;6.728;2023-01-16T15:26:12;6.50;99.90
19085;DHT22;9675;51.538;6.728;2023-01-16T15:29:08;6.50;99.90
19085;DHT22;9675;51.538;6.728;2023-01-16T15:31:46;6.50;99.90
19085;DHT22;9675;51.538;6.728;2023-01-16T15:34:28;6.40;99.90
19085;DHT22;9675;51.538;6.728;2023-01-16T15:36:58;6.40;99.90
19085;DHT22;9675;51.538;6.728;2023-01-16T15:39:31;6.40;99.90
19085;DHT22;9675;51.538;6.728;2023-01-16T15:42:12;6.40;99.90
19085;DHT22;9675;51.538;6.728;2023-01-16T15:45:07;6.40;99.90
19085;DHT22;9675;51.538;6.728;2023-01-16T15:48:17;6.40;99.90
19085;DHT22;9675;51.538;6.728;2023-01-16T15:50:55;6.40;99.90
19085;DHT22;9675;51.538;6.728;2023-01-16T15:53:29;6.40;99.90
19085;DHT22;9675;51.538;6.728;2023-01-16T15:56:02;6.40;99.90
19085;DHT22;9675;51.538;6.728;2023-01-16T15:58:35;6.40;99.90
19085;DHT22;9675;51.538;6.728;2023-01-16T16:01:04;6.40;99.90
19085;DHT22;9675;51.538;6.728;2023-01-16T16:03:38;6.30;99.90
19085;DHT22;9675;51.538;6.728;2023-01-16T16:06:09;6.40;99.90
19085;DHT22;9675;51.538;6.728;2023-01-16T16:08:41;6.30;99.90
19085;DHT22;9675;51.538;6.728;2023-01-16T16:11:16;6.30;99.90
19085;DHT22;9675;51.538;6.728;2023-01-16T16:14:04;6.30;99.90
19085;DHT22;9675;51.538;6.728;2023-01-16T16:17:00;6.30;99.90
19085;DHT22;9675;51.538;6.728;2023-01-16T16:19:45;6.30;99.90
19085;DHT22;9675;51.538;6.728;2023-01-16T16:22:18;6.30;99.90
19085;DHT22;9675;51.538;6.728;2023-01-16T16:25:13;6.30;99.90
19085;DHT22;9675;51.538;6.728;2023-01-16T16:27:45;6.30;99.90
19085;DHT22;9675;51.538;6.728;2023-01-16T16:30:21;6.30;99.90
19085;DHT22;9675;51.538;6.728;2023-01-16T16:32:50;6.30;99.90
19085;DHT22;9675;51.538;6.728;2023-01-16T16:35:22;6.30;99.90
19085;DHT22;9675;51.538;6.728;2023-01-16T16:37:54;6.30;99.90
19085;DHT22;9675;51.538;6.728;2023-01-16T16:40:21;6.30;99.90
19085;DHT22;9675;51.538;6.728;2023-01-16T16:42:51;6.30;99.90
19085;DHT22;9675;51.538;6.728;2023-01-16T16:45:26;6.30;99.90
19085;DHT22;9675;51.538;6.728;2023-01-16T16:51:18;6.30;99.90
19085;DHT22;9675;51.538;6.728;2023-01-16T16:53:48;6.30;99.90
19085;DHT22;9675;51.538;6.728;2023-01-16T16:56:21;6.30;99.90
19085;DHT22;9675;51.538;6.728;2023-01-16T16:58:50;6.30;99.90
19085;DHT22;9675;51.538;6.728;2023-01-16T17:01:21;6.30;99.90
19085;DHT22;9675;51.538;6.728;2023-01-16T17:03:52;6.30;99.90
19085;DHT22;9675;51.538;6.728;2023-01-16T17:06:23;6.30;99.90
19085;DHT22;9675;51.538;6.728;2023-01-16T17:08:54;6.30;99.90
19085;DHT22;9675;51.538;6.728;2023-01-16T17:11:22;6.30;99.90
19085;DHT22;9675;51.538;6.728;2023-01-16T17:13:50;6.30;99.90